Hovedside
METAR-TAF:

METAR-TAF

Lufthavner :

København, Danmark

Københavns lufthavn

breddegrad: 55-37N, lengdegrad: 012-39E, høyde over havet: 5 m

Gjeldene værobservasjon

Denne rapporten ble laget for 28 minutter siden, klokken 18:50 UTC
Vind 8 kt fra Sør
Temperatur 17°C
Luftfuktighet 72%
Trykk 1021 hPa
Sikt 10 km eller mer
ingen skyer under 1500 m og ingen bygeskyer

METAR: EKCH 271850Z 18008KT CAVOK 17/12 Q1021 NOSIG

Tid: 21:18 (19:18 UTC)

Varsel

Denne rapporten ble laget for 2 timer og 7 minutter siden, klokken 17:11 UTC
Varsel gyldig fra 27. klokken 18 UTC til 28. klokken 18 UTC
Vind 10 kt fra Sør
Sikt 10 km eller mer
ingen skyer under 1500 m og ingen bygeskyer
Midlertidig
fra 28. klokken 11 UTC til 28. klokken 13 UTC
Sikt 10 km eller mer
Spredte skyer i en høyde av 5000 ft, Bygeskyer.
regnbyger
Blir
fra 28. klokken 12 UTC til 28. klokken 14 UTC
Vind 15 kt fra Vest-sørvest

TAF: EKCH 271711Z 2718/2818 18010KT CAVOK TEMPO 2811/2813 9999 SHRA SCT050CB BECMG 2812/2814 24015KT

Værobservasjoner og værvarsel for over 4000 flyplasser (METAR- og TAF-rapporter).

Tilgjengelige stasjoner er representert av de røde og gule prikkene på kartet.

Hold musepekeren over prikken for å se navnet på stasjonen.

Klikk så for å se værobservasjoner og -varsler.

For å forandre kartet kan du klikke på den grønne knappen med svart kryss for å zoome inn, på den grønne knappen med strek for å zoome ut, eller på de grønne pilene for å se tilstøtende kart.


METAR-TAF: